createdAt,value
2023-08-02T00:03:24.536Z,97993.06
2023-08-02T00:09:27.758Z,97988.16
2023-08-02T00:15:29.708Z,97983.00
2023-08-02T00:21:32.079Z,97980.59
2023-08-02T00:27:33.997Z,97989.75
2023-08-02T00:33:35.935Z,97982.72
2023-08-02T00:39:38.046Z,97992.50
2023-08-02T00:45:40.046Z,97991.44
2023-08-02T00:51:42.066Z,97992.25
2023-08-02T00:57:44.066Z,97978.69
2023-08-02T01:03:46.247Z,97978.41
2023-08-02T01:10:23.894Z,97971.91
2023-08-02T01:16:32.462Z,97965.44
2023-08-02T01:22:35.340Z,97964.34
2023-08-02T01:28:43.909Z,97968.94
2023-08-02T01:34:46.710Z,97965.44
2023-08-02T01:40:48.626Z,97945.13
2023-08-02T01:46:50.549Z,97940.78
2023-08-02T01:52:52.505Z,97946.78
2023-08-02T01:58:54.465Z,97935.91
2023-08-02T02:04:56.417Z,97931.53
2023-08-02T02:10:58.367Z,97924.78
2023-08-02T02:17:00.382Z,97909.94
2023-08-02T02:23:02.421Z,97917.94
2023-08-02T02:29:04.372Z,97925.19
2023-08-02T02:35:07.794Z,97918.94
2023-08-02T02:41:09.787Z,97929.69
2023-08-02T02:47:12.430Z,97927.97
2023-08-02T02:53:14.427Z,97939.72
2023-08-02T02:59:16.342Z,97930.84
2023-08-02T03:05:18.396Z,97926.84
2023-08-02T03:11:20.350Z,97916.00
2023-08-02T03:17:22.337Z,97894.47
2023-08-02T03:23:24.278Z,97905.84
2023-08-02T03:29:26.808Z,97906.13
2023-08-02T03:35:28.743Z,97892.69
2023-08-02T03:41:30.793Z,97901.34
2023-08-02T03:47:32.764Z,97892.19
2023-08-02T03:53:34.743Z,97885.75
2023-08-02T03:59:36.722Z,97870.84
2023-08-02T04:05:39.195Z,97864.22
2023-08-02T04:11:41.184Z,97854.19
2023-08-02T04:17:43.143Z,97868.78
2023-08-02T04:23:45.160Z,97872.31
2023-08-02T04:29:47.114Z,97858.84
2023-08-02T04:35:49.046Z,97840.16
2023-08-02T04:42:01.573Z,97828.84
2023-08-02T04:48:03.741Z,97827.19
2023-08-02T04:54:06.303Z,97819.88
2023-08-02T05:00:08.875Z,97816.03
2023-08-02T05:06:10.852Z,97811.03
2023-08-02T05:12:12.800Z,97822.09
2023-08-02T05:18:14.736Z,97819.00
2023-08-02T05:24:16.698Z,97808.59
2023-08-02T05:30:18.713Z,97797.84
2023-08-02T05:36:20.673Z,97797.97
2023-08-02T05:42:22.671Z,97779.59
2023-08-02T05:48:25.096Z,97773.56
2023-08-02T05:54:27.232Z,97771.50
2023-08-02T06:00:29.275Z,97752.47
2023-08-02T06:06:31.424Z,97742.09
2023-08-02T06:12:33.398Z,97745.84
2023-08-02T06:18:35.333Z,97724.13
2023-08-02T06:24:37.365Z,97716.13
2023-08-02T06:30:39.391Z,97715.63
2023-08-02T06:36:41.371Z,97719.97
2023-08-02T06:42:43.354Z,97725.44
2023-08-02T06:48:45.303Z,97719.84
2023-08-02T06:54:47.252Z,97710.41
2023-08-02T07:00:49.290Z,97706.47
2023-08-02T07:06:51.295Z,97683.56
2023-08-02T07:12:53.633Z,97683.00
2023-08-02T07:18:55.872Z,97678.81
2023-08-02T07:24:57.853Z,97676.53
2023-08-02T07:31:15.340Z,97665.63
2023-08-02T07:37:17.324Z,97659.88
2023-08-02T07:43:19.251Z,97660.38
2023-08-02T07:49:21.198Z,97642.84
2023-08-02T07:55:23.184Z,97637.41
2023-08-02T08:01:25.228Z,97612.69
2023-08-02T08:07:27.177Z,97602.75
2023-08-02T08:13:29.164Z,97612.63
2023-08-02T08:19:34.364Z,97608.84
2023-08-02T08:25:36.334Z,97592.91
2023-08-02T08:31:38.540Z,97572.63
2023-08-02T08:37:41.267Z,97562.50
2023-08-02T08:43:43.506Z,97550.75
2023-08-02T08:49:48.571Z,97538.75
2023-08-02T08:55:51.166Z,97539.94
2023-08-02T09:01:54.080Z,97529.38
2023-08-02T09:08:05.200Z,97527.53
2023-08-02T09:14:16.524Z,97511.56
2023-08-02T09:20:28.809Z,97501.75
2023-08-02T09:26:30.833Z,97492.97
2023-08-02T09:32:32.904Z,97469.28
2023-08-02T09:38:35.007Z,97454.03
2023-08-02T09:44:37.040Z,97451.09
2023-08-02T09:51:04.302Z,97432.25
2023-08-02T09:57:07.774Z,97424.69
2023-08-02T10:03:23.880Z,97412.38
2023-08-02T10:09:32.680Z,97408.59
2023-08-02T10:15:36.216Z,97391.31
2023-08-02T10:21:41.248Z,97362.66
2023-08-02T10:27:45.570Z,97357.06
2023-08-02T10:33:47.624Z,97364.53
2023-08-02T10:39:49.565Z,97319.31
2023-08-02T10:46:19.744Z,97311.84
2023-08-02T10:52:36.272Z,97319.13
2023-08-02T10:58:53.535Z,97301.59
2023-08-02T11:04:55.511Z,97294.09
2023-08-02T11:10:57.498Z,97290.09
2023-08-02T11:23:01.467Z,97247.25
2023-08-02T11:29:09.373Z,97221.91
2023-08-02T11:35:17.712Z,97207.72
2023-08-02T11:41:22.843Z,97216.81
2023-08-02T11:47:39.368Z,97201.44
2023-08-02T11:53:56.048Z,97182.81
2023-08-02T12:00:00.795Z,97180.94
2023-08-02T12:06:03.401Z,97178.38
2023-08-02T12:12:06.187Z,97171.00
2023-08-02T12:18:10.216Z,97171.94
2023-08-02T12:24:19.075Z,97166.09
2023-08-02T12:30:21.017Z,97136.81
2023-08-02T12:36:31.120Z,97133.78
2023-08-02T12:42:34.301Z,97126.28
2023-08-02T12:48:37.765Z,97110.53
2023-08-02T12:54:39.731Z,97106.56
2023-08-02T13:00:43.942Z,97103.19
2023-08-02T13:06:55.440Z,97090.22
2023-08-02T13:12:58.183Z,97085.56
2023-08-02T13:19:01.441Z,97069.78
2023-08-02T13:25:03.689Z,97060.53
2023-08-02T13:31:05.752Z,97055.25
2023-08-02T13:37:07.761Z,97056.69
2023-08-02T13:43:09.719Z,97056.88
2023-08-02T13:49:12.709Z,97032.16
2023-08-02T13:55:14.773Z,97028.75
2023-08-02T14:01:16.767Z,97024.34
2023-08-02T14:07:18.767Z,97023.50
2023-08-02T14:13:20.713Z,97022.94
2023-08-02T14:19:22.655Z,97012.97
2023-08-02T14:25:24.801Z,96999.50
2023-08-02T14:31:26.788Z,96984.47
2023-08-02T14:37:28.832Z,96992.91
2023-08-02T14:43:30.789Z,96964.41
2023-08-02T14:49:33.545Z,96964.59
2023-08-02T14:55:35.604Z,96932.31
2023-08-02T15:01:37.621Z,96926.38
2023-08-02T15:07:39.597Z,96924.88
2023-08-02T15:13:41.546Z,96937.78
2023-08-02T15:19:43.517Z,96925.59
2023-08-02T15:25:45.532Z,96906.88
2023-08-02T15:31:47.479Z,96872.31
2023-08-02T15:37:49.951Z,96857.66
2023-08-02T15:43:51.912Z,96850.41
2023-08-02T15:49:53.862Z,96856.03
2023-08-02T15:55:55.798Z,96868.97
2023-08-02T16:01:57.821Z,96871.34
2023-08-02T16:08:00.075Z,96840.13
2023-08-02T16:14:02.051Z,96851.19
2023-08-02T16:20:04.713Z,96867.00
2023-08-02T16:26:07.418Z,96861.06
2023-08-02T16:32:09.382Z,96849.88
2023-08-02T16:38:15.367Z,96897.72
2023-08-02T16:44:17.606Z,96856.31
2023-08-02T16:50:20.667Z,96866.72
2023-08-02T16:56:23.868Z,96889.81
2023-08-02T17:02:26.589Z,96912.19
2023-08-02T17:08:28.598Z,96916.84
2023-08-02T17:14:30.538Z,96871.72
2023-08-02T17:20:32.892Z,96891.88
2023-08-02T17:26:34.892Z,96885.25
2023-08-02T17:32:36.971Z,96899.47
2023-08-02T17:38:39.032Z,96855.28
2023-08-02T17:44:40.970Z,96874.03
2023-08-02T17:50:55.986Z,96872.78
2023-08-02T17:56:57.974Z,96853.22
2023-08-02T18:02:59.951Z,96870.53
2023-08-02T18:09:01.922Z,96848.00
2023-08-02T18:15:04.207Z,96845.41
2023-08-02T18:21:07.684Z,96847.16
2023-08-02T18:27:09.674Z,96846.34
2023-08-02T18:33:15.293Z,96842.72
2023-08-02T18:39:17.353Z,96868.03
2023-08-02T18:45:19.565Z,96895.09
2023-08-02T18:51:22.878Z,96889.09
2023-08-02T18:57:25.177Z,96886.88
2023-08-02T19:03:28.411Z,96890.94
2023-08-02T19:09:31.986Z,96898.97
2023-08-02T19:15:34.070Z,96901.66
2023-08-02T19:21:36.026Z,96915.59
2023-08-02T19:27:44.242Z,96936.16
2023-08-02T19:33:46.696Z,96988.03
2023-08-02T19:39:48.806Z,96999.59
2023-08-02T19:45:59.273Z,97001.63
2023-08-02T19:52:01.258Z,97019.91
2023-08-02T19:58:03.322Z,97021.88
2023-08-02T20:04:09.958Z,97028.41
2023-08-02T20:10:52.116Z,97037.13
2023-08-02T20:16:54.672Z,97058.25
2023-08-02T20:22:56.758Z,97075.84
2023-08-02T20:28:59.641Z,97081.94
2023-08-02T20:35:01.681Z,97091.16
2023-08-02T20:41:05.816Z,97119.94
2023-08-02T20:47:16.272Z,97129.00
2023-08-02T20:53:20.933Z,97151.91
2023-08-02T20:59:28.025Z,97157.13
2023-08-02T21:05:32.317Z,97163.06
2023-08-02T21:11:34.794Z,97172.91
2023-08-02T21:17:37.012Z,97168.31
2023-08-02T21:23:44.898Z,97173.16
2023-08-02T21:29:47.957Z,97179.81
2023-08-02T21:35:58.370Z,97184.94
2023-08-02T21:42:01.257Z,97173.38
2023-08-02T21:48:07.398Z,97172.34
2023-08-02T21:54:09.402Z,97168.25
2023-08-02T22:00:19.306Z,97169.38
2023-08-02T22:06:29.772Z,97159.84
2023-08-02T22:12:34.933Z,97170.97
2023-08-02T22:18:37.001Z,97176.28
2023-08-02T22:24:38.960Z,97175.66
2023-08-02T22:30:40.936Z,97182.69
2023-08-02T22:36:42.854Z,97182.47
2023-08-02T22:42:44.834Z,97185.56
2023-08-02T22:54:53.860Z,97194.38
2023-08-02T23:00:56.023Z,97197.81
2023-08-02T23:06:59.771Z,97185.47
2023-08-02T23:13:06.652Z,97179.75
2023-08-02T23:19:17.777Z,97170.78
2023-08-02T23:25:19.761Z,97171.50
2023-08-02T23:31:24.795Z,97168.16
2023-08-02T23:37:26.813Z,97159.00
2023-08-02T23:43:28.811Z,97167.25
2023-08-02T23:49:30.741Z,97164.94
2023-08-02T23:55:33.187Z,97160.69
